sensor_id;sensor_type;location;lat;lon;timestamp;P1;durP1;ratioP1;P2;durP2;ratioP2
83096;SDS011;72968;49.460;11.004;2023-10-31T00:01:32;12.90;;;6.88;;
83096;SDS011;72968;49.460;11.004;2023-10-31T00:04:04;15.88;;;7.80;;
83096;SDS011;72968;49.460;11.004;2023-10-31T00:06:35;15.02;;;8.25;;
83096;SDS011;72968;49.460;11.004;2023-10-31T00:09:06;14.88;;;6.93;;
83096;SDS011;72968;49.460;11.004;2023-10-31T00:11:39;11.13;;;5.88;;
83096;SDS011;72968;49.460;11.004;2023-10-31T00:14:13;11.18;;;6.68;;
83096;SDS011;72968;49.460;11.004;2023-10-31T00:16:44;13.68;;;7.38;;
83096;SDS011;72968;49.460;11.004;2023-10-31T00:19:16;15.85;;;5.82;;
83096;SDS011;72968;49.460;11.004;2023-10-31T00:21:47;15.35;;;6.75;;
83096;SDS011;72968;49.460;11.004;2023-10-31T00:24:18;9.60;;;5.68;;
83096;SDS011;72968;49.460;11.004;2023-10-31T00:26:50;8.75;;;5.35;;
83096;SDS011;72968;49.460;11.004;2023-10-31T00:29:22;9.50;;;5.05;;
83096;SDS011;72968;49.460;11.004;2023-10-31T00:31:54;9.57;;;5.55;;
83096;SDS011;72968;49.460;11.004;2023-10-31T00:34:25;10.13;;;5.03;;
83096;SDS011;72968;49.460;11.004;2023-10-31T00:36:56;8.88;;;5.28;;
83096;SDS011;72968;49.460;11.004;2023-10-31T00:39:28;10.45;;;5.88;;
83096;SDS011;72968;49.460;11.004;2023-10-31T00:41:59;12.38;;;5.38;;
83096;SDS011;72968;49.460;11.004;2023-10-31T00:44:32;8.45;;;5.07;;
83096;SDS011;72968;49.460;11.004;2023-10-31T00:47:03;9.45;;;4.72;;
83096;SDS011;72968;49.460;11.004;2023-10-31T00:49:35;7.75;;;4.43;;
83096;SDS011;72968;49.460;11.004;2023-10-31T00:52:06;7.45;;;4.35;;
83096;SDS011;72968;49.460;11.004;2023-10-31T00:54:38;6.97;;;4.18;;
83096;SDS011;72968;49.460;11.004;2023-10-31T00:57:09;8.38;;;4.32;;
83096;SDS011;72968;49.460;11.004;2023-10-31T00:59:41;9.25;;;4.68;;
83096;SDS011;72968;49.460;11.004;2023-10-31T01:02:13;8.10;;;3.95;;
83096;SDS011;72968;49.460;11.004;2023-10-31T01:04:44;6.80;;;3.75;;
83096;SDS011;72968;49.460;11.004;2023-10-31T01:07:15;6.35;;;3.63;;
83096;SDS011;72968;49.460;11.004;2023-10-31T01:09:48;8.55;;;3.70;;
83096;SDS011;72968;49.460;11.004;2023-10-31T01:12:19;7.60;;;3.58;;
83096;SDS011;72968;49.460;11.004;2023-10-31T01:14:51;6.55;;;3.33;;
83096;SDS011;72968;49.460;11.004;2023-10-31T01:17:23;5.03;;;3.03;;
83096;SDS011;72968;49.460;11.004;2023-10-31T01:19:54;5.03;;;2.92;;
83096;SDS011;72968;49.460;11.004;2023-10-31T01:22:25;5.18;;;2.78;;
83096;SDS011;72968;49.460;11.004;2023-10-31T01:24:57;4.28;;;2.60;;
83096;SDS011;72968;49.460;11.004;2023-10-31T01:27:28;5.38;;;2.20;;
83096;SDS011;72968;49.460;11.004;2023-10-31T01:30:01;3.60;;;1.80;;
83096;SDS011;72968;49.460;11.004;2023-10-31T01:32:32;3.42;;;1.95;;
83096;SDS011;72968;49.460;11.004;2023-10-31T01:35:04;2.28;;;1.23;;
83096;SDS011;72968;49.460;11.004;2023-10-31T01:37:35;2.95;;;1.52;;
83096;SDS011;72968;49.460;11.004;2023-10-31T01:40:07;2.20;;;1.50;;
83096;SDS011;72968;49.460;11.004;2023-10-31T01:42:39;2.30;;;1.40;;
83096;SDS011;72968;49.460;11.004;2023-10-31T01:45:12;2.13;;;1.23;;
83096;SDS011;72968;49.460;11.004;2023-10-31T01:47:43;2.25;;;1.30;;
83096;SDS011;72968;49.460;11.004;2023-10-31T01:50:16;2.40;;;1.05;;
83096;SDS011;72968;49.460;11.004;2023-10-31T01:52:49;1.50;;;0.70;;
83096;SDS011;72968;49.460;11.004;2023-10-31T01:55:20;1.50;;;0.70;;
83096;SDS011;72968;49.460;11.004;2023-10-31T01:57:52;2.30;;;0.82;;
83096;SDS011;72968;49.460;11.004;2023-10-31T02:00:24;2.85;;;1.00;;
83096;SDS011;72968;49.460;11.004;2023-10-31T02:02:56;1.15;;;0.70;;
83096;SDS011;72968;49.460;11.004;2023-10-31T02:05:28;4.70;;;0.88;;
83096;SDS011;72968;49.460;11.004;2023-10-31T02:08:02;1.45;;;0.70;;
83096;SDS011;72968;49.460;11.004;2023-10-31T02:10:33;1.00;;;0.60;;
83096;SDS011;72968;49.460;11.004;2023-10-31T02:13:11;2.95;;;0.70;;
83096;SDS011;72968;49.460;11.004;2023-10-31T02:15:44;1.45;;;0.80;;
83096;SDS011;72968;49.460;11.004;2023-10-31T02:18:15;3.17;;;0.80;;
83096;SDS011;72968;49.460;11.004;2023-10-31T02:20:47;1.38;;;0.68;;
83096;SDS011;72968;49.460;11.004;2023-10-31T02:23:20;1.50;;;0.88;;
83096;SDS011;72968;49.460;11.004;2023-10-31T02:25:51;2.38;;;0.88;;
83096;SDS011;72968;49.460;11.004;2023-10-31T02:28:22;0.93;;;0.60;;
83096;SDS011;72968;49.460;11.004;2023-10-31T02:30:57;0.77;;;0.60;;
83096;SDS011;72968;49.460;11.004;2023-10-31T02:33:28;0.90;;;0.50;;
83096;SDS011;72968;49.460;11.004;2023-10-31T02:36:00;1.30;;;0.65;;
83096;SDS011;72968;49.460;11.004;2023-10-31T02:38:33;1.02;;;0.50;;
83096;SDS011;72968;49.460;11.004;2023-10-31T02:41:04;2.55;;;0.80;;
83096;SDS011;72968;49.460;11.004;2023-10-31T02:43:35;1.00;;;0.57;;
83096;SDS011;72968;49.460;11.004;2023-10-31T02:46:07;1.23;;;0.70;;
83096;SDS011;72968;49.460;11.004;2023-10-31T02:48:38;1.55;;;0.90;;
83096;SDS011;72968;49.460;11.004;2023-10-31T02:51:10;1.42;;;0.60;;
83096;SDS011;72968;49.460;11.004;2023-10-31T02:53:43;1.45;;;0.80;;
83096;SDS011;72968;49.460;11.004;2023-10-31T02:56:14;1.50;;;0.80;;
83096;SDS011;72968;49.460;11.004;2023-10-31T02:58:46;2.42;;;0.88;;
83096;SDS011;72968;49.460;11.004;2023-10-31T03:01:17;1.85;;;1.05;;
83096;SDS011;72968;49.460;11.004;2023-10-31T03:03:50;2.78;;;0.80;;
83096;SDS011;72968;49.460;11.004;2023-10-31T03:06:21;1.35;;;0.70;;
83096;SDS011;72968;49.460;11.004;2023-10-31T03:08:54;1.30;;;0.80;;
83096;SDS011;72968;49.460;11.004;2023-10-31T03:11:25;1.17;;;0.70;;
83096;SDS011;72968;49.460;11.004;2023-10-31T03:13:57;1.10;;;0.70;;
83096;SDS011;72968;49.460;11.004;2023-10-31T03:16:28;1.25;;;0.75;;
83096;SDS011;72968;49.460;11.004;2023-10-31T03:18:59;4.68;;;0.85;;
83096;SDS011;72968;49.460;11.004;2023-10-31T03:21:30;2.67;;;0.90;;
83096;SDS011;72968;49.460;11.004;2023-10-31T03:24:04;1.35;;;0.80;;
83096;SDS011;72968;49.460;11.004;2023-10-31T03:26:35;2.10;;;0.90;;
83096;SDS011;72968;49.460;11.004;2023-10-31T03:29:06;2.10;;;0.90;;
83096;SDS011;72968;49.460;11.004;2023-10-31T03:31:38;1.38;;;0.68;;
83096;SDS011;72968;49.460;11.004;2023-10-31T03:34:09;2.10;;;1.02;;
83096;SDS011;72968;49.460;11.004;2023-10-31T03:36:40;2.25;;;0.95;;
83096;SDS011;72968;49.460;11.004;2023-10-31T03:39:14;1.17;;;0.73;;
83096;SDS011;72968;49.460;11.004;2023-10-31T03:41:45;1.77;;;0.63;;
83096;SDS011;72968;49.460;11.004;2023-10-31T03:44:16;1.52;;;0.80;;
83096;SDS011;72968;49.460;11.004;2023-10-31T03:46:48;4.00;;;0.60;;
83096;SDS011;72968;49.460;11.004;2023-10-31T03:49:19;1.00;;;0.63;;
83096;SDS011;72968;49.460;11.004;2023-10-31T03:51:50;1.52;;;0.82;;
83096;SDS011;72968;49.460;11.004;2023-10-31T03:54:23;1.63;;;0.70;;
83096;SDS011;72968;49.460;11.004;2023-10-31T03:56:55;2.25;;;0.80;;
83096;SDS011;72968;49.460;11.004;2023-10-31T03:59:26;2.75;;;0.80;;
83096;SDS011;72968;49.460;11.004;2023-10-31T04:01:57;2.45;;;0.90;;
83096;SDS011;72968;49.460;11.004;2023-10-31T04:04:29;1.80;;;0.77;;
83096;SDS011;72968;49.460;11.004;2023-10-31T04:07:00;1.70;;;0.90;;
83096;SDS011;72968;49.460;11.004;2023-10-31T04:09:33;1.85;;;1.00;;
83096;SDS011;72968;49.460;11.004;2023-10-31T04:12:04;1.58;;;0.80;;
83096;SDS011;72968;49.460;11.004;2023-10-31T04:14:37;3.05;;;1.17;;
83096;SDS011;72968;49.460;11.004;2023-10-31T04:17:09;1.75;;;0.90;;
83096;SDS011;72968;49.460;11.004;2023-10-31T04:19:40;2.10;;;1.20;;
83096;SDS011;72968;49.460;11.004;2023-10-31T04:22:12;1.90;;;1.00;;
83096;SDS011;72968;49.460;11.004;2023-10-31T04:24:44;1.50;;;0.90;;
83096;SDS011;72968;49.460;11.004;2023-10-31T04:27:16;1.70;;;0.98;;
83096;SDS011;72968;49.460;11.004;2023-10-31T04:29:47;1.88;;;1.08;;
83096;SDS011;72968;49.460;11.004;2023-10-31T04:32:19;1.55;;;1.00;;
83096;SDS011;72968;49.460;11.004;2023-10-31T04:34:50;1.50;;;0.93;;
83096;SDS011;72968;49.460;11.004;2023-10-31T04:37:21;1.67;;;1.08;;
83096;SDS011;72968;49.460;11.004;2023-10-31T04:39:54;1.65;;;1.05;;
83096;SDS011;72968;49.460;11.004;2023-10-31T04:42:25;2.88;;;1.20;;
83096;SDS011;72968;49.460;11.004;2023-10-31T04:44:57;2.30;;;1.00;;
83096;SDS011;72968;49.460;11.004;2023-10-31T04:47:28;1.77;;;1.00;;
83096;SDS011;72968;49.460;11.004;2023-10-31T04:50:00;1.70;;;1.02;;
83096;SDS011;72968;49.460;11.004;2023-10-31T04:52:31;1.40;;;0.90;;
83096;SDS011;72968;49.460;11.004;2023-10-31T04:55:04;2.58;;;1.00;;
83096;SDS011;72968;49.460;11.004;2023-10-31T04:57:36;4.50;;;1.15;;
83096;SDS011;72968;49.460;11.004;2023-10-31T05:00:07;1.45;;;1.05;;
83096;SDS011;72968;49.460;11.004;2023-10-31T05:02:39;1.50;;;1.10;;
83096;SDS011;72968;49.460;11.004;2023-10-31T05:05:10;2.25;;;1.13;;
83096;SDS011;72968;49.460;11.004;2023-10-31T05:07:41;1.63;;;0.98;;
83096;SDS011;72968;49.460;11.004;2023-10-31T05:10:14;2.53;;;1.17;;
83096;SDS011;72968;49.460;11.004;2023-10-31T05:12:46;1.77;;;0.85;;
83096;SDS011;72968;49.460;11.004;2023-10-31T05:15:17;2.55;;;0.77;;
83096;SDS011;72968;49.460;11.004;2023-10-31T05:17:48;1.25;;;0.70;;
83096;SDS011;72968;49.460;11.004;2023-10-31T05:20:19;2.95;;;1.10;;
83096;SDS011;72968;49.460;11.004;2023-10-31T05:22:51;2.97;;;0.90;;
83096;SDS011;72968;49.460;11.004;2023-10-31T05:25:23;1.50;;;0.90;;
83096;SDS011;72968;49.460;11.004;2023-10-31T05:27:55;1.35;;;0.80;;
83096;SDS011;72968;49.460;11.004;2023-10-31T05:30:26;2.63;;;0.80;;
83096;SDS011;72968;49.460;11.004;2023-10-31T05:32:58;2.08;;;0.90;;
83096;SDS011;72968;49.460;11.004;2023-10-31T05:35:29;1.20;;;0.68;;
83096;SDS011;72968;49.460;11.004;2023-10-31T05:38:00;2.42;;;0.80;;
83096;SDS011;72968;49.460;11.004;2023-10-31T05:40:33;1.45;;;0.73;;
83096;SDS011;72968;49.460;11.004;2023-10-31T05:43:05;1.83;;;0.90;;
83096;SDS011;72968;49.460;11.004;2023-10-31T05:45:36;1.52;;;0.75;;
83096;SDS011;72968;49.460;11.004;2023-10-31T05:48:08;2.75;;;0.93;;
83096;SDS011;72968;49.460;11.004;2023-10-31T05:50:39;2.40;;;0.90;;
83096;SDS011;72968;49.460;11.004;2023-10-31T05:53:10;1.52;;;0.70;;
83096;SDS011;72968;49.460;11.004;2023-10-31T05:55:44;2.20;;;0.63;;
83096;SDS011;72968;49.460;11.004;2023-10-31T05:58:15;1.17;;;0.85;;
83096;SDS011;72968;49.460;11.004;2023-10-31T06:00:46;1.95;;;1.00;;
83096;SDS011;72968;49.460;11.004;2023-10-31T06:03:18;1.25;;;0.55;;
83096;SDS011;72968;49.460;11.004;2023-10-31T06:05:49;2.40;;;0.80;;
83096;SDS011;72968;49.460;11.004;2023-10-31T06:08:20;1.25;;;0.55;;
83096;SDS011;72968;49.460;11.004;2023-10-31T06:10:55;3.10;;;0.80;;
83096;SDS011;72968;49.460;11.004;2023-10-31T06:13:27;2.85;;;0.73;;
83096;SDS011;72968;49.460;11.004;2023-10-31T06:16:00;0.57;;;0.38;;
83096;SDS011;72968;49.460;11.004;2023-10-31T06:18:31;1.73;;;1.00;;
83096;SDS011;72968;49.460;11.004;2023-10-31T06:21:02;1.60;;;0.70;;
83096;SDS011;72968;49.460;11.004;2023-10-31T06:23:34;3.33;;;0.85;;
83096;SDS011;72968;49.460;11.004;2023-10-31T06:26:07;3.35;;;0.90;;
83096;SDS011;72968;49.460;11.004;2023-10-31T06:28:38;1.35;;;0.70;;
83096;SDS011;72968;49.460;11.004;2023-10-31T06:31:10;1.20;;;0.52;;
83096;SDS011;72968;49.460;11.004;2023-10-31T06:33:41;1.90;;;0.80;;
83096;SDS011;72968;49.460;11.004;2023-10-31T06:36:12;0.63;;;0.40;;
83096;SDS011;72968;49.460;11.004;2023-10-31T06:38:45;1.55;;;0.82;;
83096;SDS011;72968;49.460;11.004;2023-10-31T06:41:17;3.20;;;0.63;;
83096;SDS011;72968;49.460;11.004;2023-10-31T06:43:49;1.38;;;0.60;;
83096;SDS011;72968;49.460;11.004;2023-10-31T06:46:20;0.95;;;0.60;;
83096;SDS011;72968;49.460;11.004;2023-10-31T06:48:51;1.50;;;0.70;;
83096;SDS011;72968;49.460;11.004;2023-10-31T06:51:23;1.75;;;0.73;;
83096;SDS011;72968;49.460;11.004;2023-10-31T06:53:54;1.58;;;0.50;;
83096;SDS011;72968;49.460;11.004;2023-10-31T06:56:26;1.73;;;0.80;;
83096;SDS011;72968;49.460;11.004;2023-10-31T06:58:58;0.63;;;0.40;;
83096;SDS011;72968;49.460;11.004;2023-10-31T07:01:30;0.77;;;0.52;;
83096;SDS011;72968;49.460;11.004;2023-10-31T07:04:01;0.55;;;0.40;;
83096;SDS011;72968;49.460;11.004;2023-10-31T07:06:32;2.22;;;0.60;;
83096;SDS011;72968;49.460;11.004;2023-10-31T07:09:04;1.40;;;0.40;;
83096;SDS011;72968;49.460;11.004;2023-10-31T07:11:37;1.00;;;0.60;;
83096;SDS011;72968;49.460;11.004;2023-10-31T07:14:08;1.20;;;0.73;;
83096;SDS011;72968;49.460;11.004;2023-10-31T07:16:39;1.38;;;0.68;;
83096;SDS011;72968;49.460;11.004;2023-10-31T07:19:13;1.60;;;0.70;;
83096;SDS011;72968;49.460;11.004;2023-10-31T07:21:45;3.38;;;0.82;;
83096;SDS011;72968;49.460;11.004;2023-10-31T07:24:16;1.02;;;0.60;;
83096;SDS011;72968;49.460;11.004;2023-10-31T07:26:49;2.35;;;0.63;;
83096;SDS011;72968;49.460;11.004;2023-10-31T07:29:20;2.70;;;0.80;;
83096;SDS011;72968;49.460;11.004;2023-10-31T07:31:51;1.77;;;0.80;;
83096;SDS011;72968;49.460;11.004;2023-10-31T07:34:23;1.85;;;0.60;;
83096;SDS011;72968;49.460;11.004;2023-10-31T07:36:54;0.75;;;0.47;;
83096;SDS011;72968;49.460;11.004;2023-10-31T07:39:26;0.80;;;0.52;;
83096;SDS011;72968;49.460;11.004;2023-10-31T07:41:59;0.47;;;0.40;;
83096;SDS011;72968;49.460;11.004;2023-10-31T07:44:31;1.73;;;0.70;;
83096;SDS011;72968;49.460;11.004;2023-10-31T07:47:02;1.10;;;0.65;;
83096;SDS011;72968;49.460;11.004;2023-10-31T07:49:34;0.38;;;0.32;;
83096;SDS011;72968;49.460;11.004;2023-10-31T07:52:05;0.68;;;0.43;;
83096;SDS011;72968;49.460;11.004;2023-10-31T07:54:38;1.77;;;0.40;;
83096;SDS011;72968;49.460;11.004;2023-10-31T07:57:11;1.88;;;0.57;;
83096;SDS011;72968;49.460;11.004;2023-10-31T07:59:43;0.85;;;0.40;;
83096;SDS011;72968;49.460;11.004;2023-10-31T08:02:14;0.60;;;0.50;;
83096;SDS011;72968;49.460;11.004;2023-10-31T08:04:46;0.77;;;0.40;;
83096;SDS011;72968;49.460;11.004;2023-10-31T08:07:17;1.60;;;0.47;;
83096;SDS011;72968;49.460;11.004;2023-10-31T08:09:49;1.23;;;0.55;;
83096;SDS011;72968;49.460;11.004;2023-10-31T08:12:21;1.33;;;0.63;;
83096;SDS011;72968;49.460;11.004;2023-10-31T08:14:52;0.60;;;0.40;;
83096;SDS011;72968;49.460;11.004;2023-10-31T08:17:24;1.75;;;0.60;;
83096;SDS011;72968;49.460;11.004;2023-10-31T08:19:56;0.95;;;0.50;;
83096;SDS011;72968;49.460;11.004;2023-10-31T08:22:27;0.52;;;0.40;;
83096;SDS011;72968;49.460;11.004;2023-10-31T08:24:58;0.85;;;0.40;;
83096;SDS011;72968;49.460;11.004;2023-10-31T08:27:31;2.53;;;0.50;;
83096;SDS011;72968;49.460;11.004;2023-10-31T08:30:03;1.60;;;0.60;;
83096;SDS011;72968;49.460;11.004;2023-10-31T08:32:34;0.73;;;0.40;;
83096;SDS011;72968;49.460;11.004;2023-10-31T08:35:06;1.58;;;0.50;;
83096;SDS011;72968;49.460;11.004;2023-10-31T08:37:37;1.40;;;0.70;;
83096;SDS011;72968;49.460;11.004;2023-10-31T08:40:09;0.90;;;0.50;;
83096;SDS011;72968;49.460;11.004;2023-10-31T08:42:42;1.20;;;0.55;;
83096;SDS011;72968;49.460;11.004;2023-10-31T08:45:14;3.00;;;0.70;;
83096;SDS011;72968;49.460;11.004;2023-10-31T08:47:45;2.13;;;0.50;;
83096;SDS011;72968;49.460;11.004;2023-10-31T08:50:17;1.55;;;0.50;;
83096;SDS011;72968;49.460;11.004;2023-10-31T08:52:48;0.90;;;0.50;;
83096;SDS011;72968;49.460;11.004;2023-10-31T08:55:19;1.40;;;0.40;;
83096;SDS011;72968;49.460;11.004;2023-10-31T08:57:52;0.88;;;0.43;;
83096;SDS011;72968;49.460;11.004;2023-10-31T09:00:24;2.25;;;0.47;;
83096;SDS011;72968;49.460;11.004;2023-10-31T09:02:57;2.40;;;0.50;;
83096;SDS011;72968;49.460;11.004;2023-10-31T09:05:28;0.65;;;0.40;;
83096;SDS011;72968;49.460;11.004;2023-10-31T09:07:59;0.90;;;0.38;;
83096;SDS011;72968;49.460;11.004;2023-10-31T09:10:31;1.13;;;0.55;;
83096;SDS011;72968;49.460;11.004;2023-10-31T09:13:04;1.73;;;0.40;;
83096;SDS011;72968;49.460;11.004;2023-10-31T09:15:35;1.40;;;0.50;;
83096;SDS011;72968;49.460;11.004;2023-10-31T09:18:07;1.88;;;0.52;;
83096;SDS011;72968;49.460;11.004;2023-10-31T09:20:38;0.98;;;0.60;;
83096;SDS011;72968;49.460;11.004;2023-10-31T09:23:09;1.10;;;0.50;;
83096;SDS011;72968;49.460;11.004;2023-10-31T09:25:41;0.68;;;0.35;;
83096;SDS011;72968;49.460;11.004;2023-10-31T09:28:14;0.85;;;0.40;;
83096;SDS011;72968;49.460;11.004;2023-10-31T09:30:45;1.05;;;0.40;;
83096;SDS011;72968;49.460;11.004;2023-10-31T09:33:16;0.77;;;0.45;;
83096;SDS011;72968;49.460;11.004;2023-10-31T09:35:48;1.05;;;0.60;;
83096;SDS011;72968;49.460;11.004;2023-10-31T09:38:19;0.88;;;0.60;;
83096;SDS011;72968;49.460;11.004;2023-10-31T09:40:50;0.60;;;0.40;;
83096;SDS011;72968;49.460;11.004;2023-10-31T09:43:23;2.33;;;0.70;;
83096;SDS011;72968;49.460;11.004;2023-10-31T09:45:54;1.00;;;0.60;;
83096;SDS011;72968;49.460;11.004;2023-10-31T09:48:27;1.30;;;0.60;;
83096;SDS011;72968;49.460;11.004;2023-10-31T09:50:58;2.85;;;0.70;;
83096;SDS011;72968;49.460;11.004;2023-10-31T09:53:30;0.63;;;0.32;;
83096;SDS011;72968;49.460;11.004;2023-10-31T09:56:03;0.63;;;0.30;;
83096;SDS011;72968;49.460;11.004;2023-10-31T09:58:36;1.42;;;0.35;;
83096;SDS011;72968;49.460;11.004;2023-10-31T10:01:09;1.58;;;0.85;;
83096;SDS011;72968;49.460;11.004;2023-10-31T10:03:41;2.15;;;0.90;;
83096;SDS011;72968;49.460;11.004;2023-10-31T10:06:13;0.80;;;0.40;;
83096;SDS011;72968;49.460;11.004;2023-10-31T10:08:44;2.65;;;0.50;;
83096;SDS011;72968;49.460;11.004;2023-10-31T10:11:16;1.30;;;0.60;;
83096;SDS011;72968;49.460;11.004;2023-10-31T10:13:49;1.35;;;0.55;;
83096;SDS011;72968;49.460;11.004;2023-10-31T10:16:29;2.92;;;0.80;;
83096;SDS011;72968;49.460;11.004;2023-10-31T10:19:14;0.80;;;0.50;;
83096;SDS011;72968;49.460;11.004;2023-10-31T10:21:46;1.30;;;0.65;;
83096;SDS011;72968;49.460;11.004;2023-10-31T10:24:18;0.60;;;0.60;;
83096;SDS011;72968;49.460;11.004;2023-10-31T10:26:49;1.10;;;0.60;;
83096;SDS011;72968;49.460;11.004;2023-10-31T10:29:23;2.05;;;0.65;;
83096;SDS011;72968;49.460;11.004;2023-10-31T10:31:56;1.70;;;0.73;;
83096;SDS011;72968;49.460;11.004;2023-10-31T10:34:27;1.88;;;0.70;;
83096;SDS011;72968;49.460;11.004;2023-10-31T10:36:59;1.25;;;0.70;;
83096;SDS011;72968;49.460;11.004;2023-10-31T10:39:30;3.72;;;0.70;;
83096;SDS011;72968;49.460;11.004;2023-10-31T10:42:03;1.33;;;0.68;;
83096;SDS011;72968;49.460;11.004;2023-10-31T10:44:39;2.35;;;0.52;;
83096;SDS011;72968;49.460;11.004;2023-10-31T10:47:14;2.28;;;0.70;;
83096;SDS011;72968;49.460;11.004;2023-10-31T10:49:46;1.42;;;0.80;;
83096;SDS011;72968;49.460;11.004;2023-10-31T10:52:22;2.20;;;0.80;;
83096;SDS011;72968;49.460;11.004;2023-10-31T10:54:54;1.48;;;0.77;;
83096;SDS011;72968;49.460;11.004;2023-10-31T10:57:31;2.72;;;1.08;;
83096;SDS011;72968;49.460;11.004;2023-10-31T11:00:05;3.90;;;0.98;;
83096;SDS011;72968;49.460;11.004;2023-10-31T11:02:39;2.35;;;0.70;;
83096;SDS011;72968;49.460;11.004;2023-10-31T11:05:10;1.15;;;0.68;;
83096;SDS011;72968;49.460;11.004;2023-10-31T11:07:42;1.58;;;0.63;;
83096;SDS011;72968;49.460;11.004;2023-10-31T11:10:14;1.65;;;0.73;;
83096;SDS011;72968;49.460;11.004;2023-10-31T11:12:46;1.60;;;0.60;;
83096;SDS011;72968;49.460;11.004;2023-10-31T11:15:19;1.48;;;0.65;;
83096;SDS011;72968;49.460;11.004;2023-10-31T11:17:50;2.15;;;0.90;;
83096;SDS011;72968;49.460;11.004;2023-10-31T11:20:22;1.70;;;0.85;;
83096;SDS011;72968;49.460;11.004;2023-10-31T11:22:54;1.48;;;0.60;;
83096;SDS011;72968;49.460;11.004;2023-10-31T11:25:27;2.03;;;0.70;;
83096;SDS011;72968;49.460;11.004;2023-10-31T11:28:11;4.28;;;0.95;;
83096;SDS011;72968;49.460;11.004;2023-10-31T11:30:44;1.83;;;0.60;;
83096;SDS011;72968;49.460;11.004;2023-10-31T11:33:18;1.15;;;0.65;;
83096;SDS011;72968;49.460;11.004;2023-10-31T11:35:50;2.63;;;0.77;;
83096;SDS011;72968;49.460;11.004;2023-10-31T11:38:28;1.35;;;0.70;;
83096;SDS011;72968;49.460;11.004;2023-10-31T11:41:01;1.35;;;0.73;;
83096;SDS011;72968;49.460;11.004;2023-10-31T11:43:50;1.20;;;0.70;;
83096;SDS011;72968;49.460;11.004;2023-10-31T11:46:23;1.50;;;0.90;;
83096;SDS011;72968;49.460;11.004;2023-10-31T11:48:55;1.70;;;0.70;;
83096;SDS011;72968;49.460;11.004;2023-10-31T11:51:27;1.65;;;0.60;;
83096;SDS011;72968;49.460;11.004;2023-10-31T11:53:59;0.93;;;0.57;;
83096;SDS011;72968;49.460;11.004;2023-10-31T11:56:30;3.08;;;0.75;;
83096;SDS011;72968;49.460;11.004;2023-10-31T11:59:03;1.90;;;0.90;;
83096;SDS011;72968;49.460;11.004;2023-10-31T12:01:44;1.15;;;0.70;;
83096;SDS011;72968;49.460;11.004;2023-10-31T12:04:23;1.80;;;1.05;;
83096;SDS011;72968;49.460;11.004;2023-10-31T12:06:58;1.75;;;0.77;;
83096;SDS011;72968;49.460;11.004;2023-10-31T12:09:30;1.17;;;0.70;;
83096;SDS011;72968;49.460;11.004;2023-10-31T12:12:01;2.30;;;0.80;;
83096;SDS011;72968;49.460;11.004;2023-10-31T12:14:33;2.63;;;0.73;;
83096;SDS011;72968;49.460;11.004;2023-10-31T12:17:05;2.25;;;0.90;;
83096;SDS011;72968;49.460;11.004;2023-10-31T12:19:39;3.10;;;0.90;;
83096;SDS011;72968;49.460;11.004;2023-10-31T12:22:14;1.90;;;0.95;;
83096;SDS011;72968;49.460;11.004;2023-10-31T12:24:45;4.82;;;1.17;;
83096;SDS011;72968;49.460;11.004;2023-10-31T12:27:17;1.65;;;0.73;;
83096;SDS011;72968;49.460;11.004;2023-10-31T12:29:52;2.28;;;0.80;;
83096;SDS011;72968;49.460;11.004;2023-10-31T12:35:03;1.85;;;0.90;;
83096;SDS011;72968;49.460;11.004;2023-10-31T12:37:35;3.10;;;0.70;;
83096;SDS011;72968;49.460;11.004;2023-10-31T12:40:07;1.55;;;0.70;;
83096;SDS011;72968;49.460;11.004;2023-10-31T12:42:40;3.38;;;0.93;;
83096;SDS011;72968;49.460;11.004;2023-10-31T12:45:13;2.13;;;0.93;;
83096;SDS011;72968;49.460;11.004;2023-10-31T12:47:44;1.40;;;0.82;;
83096;SDS011;72968;49.460;11.004;2023-10-31T12:50:17;3.08;;;0.90;;
83096;SDS011;72968;49.460;11.004;2023-10-31T12:52:49;1.85;;;0.80;;
83096;SDS011;72968;49.460;11.004;2023-10-31T12:55:22;2.25;;;0.77;;
83096;SDS011;72968;49.460;11.004;2023-10-31T12:57:53;4.30;;;0.98;;
83096;SDS011;72968;49.460;11.004;2023-10-31T13:00:30;1.98;;;0.90;;
83096;SDS011;72968;49.460;11.004;2023-10-31T13:03:03;2.15;;;0.90;;
83096;SDS011;72968;49.460;11.004;2023-10-31T13:05:37;1.80;;;0.88;;
83096;SDS011;72968;49.460;11.004;2023-10-31T13:08:13;3.33;;;1.08;;
83096;SDS011;72968;49.460;11.004;2023-10-31T13:10:45;1.67;;;0.80;;
83096;SDS011;72968;49.460;11.004;2023-10-31T13:13:16;4.93;;;1.13;;
83096;SDS011;72968;49.460;11.004;2023-10-31T13:15:47;2.35;;;0.80;;
83096;SDS011;72968;49.460;11.004;2023-10-31T13:18:19;2.90;;;0.80;;
83096;SDS011;72968;49.460;11.004;2023-10-31T13:20:51;2.03;;;0.80;;
83096;SDS011;72968;49.460;11.004;2023-10-31T13:23:23;3.50;;;0.85;;
83096;SDS011;72968;49.460;11.004;2023-10-31T13:25:54;2.75;;;0.70;;
83096;SDS011;72968;49.460;11.004;2023-10-31T13:28:25;0.90;;;0.50;;
83096;SDS011;72968;49.460;11.004;2023-10-31T13:30:58;2.45;;;0.70;;
83096;SDS011;72968;49.460;11.004;2023-10-31T13:33:30;1.90;;;0.60;;
83096;SDS011;72968;49.460;11.004;2023-10-31T13:36:03;2.30;;;0.65;;
83096;SDS011;72968;49.460;11.004;2023-10-31T13:38:34;2.15;;;0.70;;
83096;SDS011;72968;49.460;11.004;2023-10-31T13:41:06;4.53;;;0.93;;
83096;SDS011;72968;49.460;11.004;2023-10-31T13:43:37;3.30;;;0.98;;
83096;SDS011;72968;49.460;11.004;2023-10-31T13:46:08;1.95;;;0.63;;
83096;SDS011;72968;49.460;11.004;2023-10-31T13:48:40;0.82;;;0.50;;
83096;SDS011;72968;49.460;11.004;2023-10-31T13:51:13;2.90;;;0.65;;
83096;SDS011;72968;49.460;11.004;2023-10-31T13:53:44;1.33;;;0.65;;
83096;SDS011;72968;49.460;11.004;2023-10-31T13:56:15;4.88;;;1.00;;
83096;SDS011;72968;49.460;11.004;2023-10-31T13:58:47;2.97;;;0.70;;
83096;SDS011;72968;49.460;11.004;2023-10-31T14:01:19;2.90;;;0.73;;
83096;SDS011;72968;49.460;11.004;2023-10-31T14:03:54;1.27;;;0.52;;
83096;SDS011;72968;49.460;11.004;2023-10-31T14:06:27;1.77;;;0.80;;
83096;SDS011;72968;49.460;11.004;2023-10-31T14:09:00;2.30;;;0.73;;
83096;SDS011;72968;49.460;11.004;2023-10-31T14:11:34;4.50;;;0.50;;
83096;SDS011;72968;49.460;11.004;2023-10-31T14:14:06;2.40;;;0.60;;
83096;SDS011;72968;49.460;11.004;2023-10-31T14:16:39;3.42;;;0.65;;
83096;SDS011;72968;49.460;11.004;2023-10-31T14:19:11;2.88;;;0.70;;
83096;SDS011;72968;49.460;11.004;2023-10-31T14:21:44;3.85;;;0.80;;
83096;SDS011;72968;49.460;11.004;2023-10-31T14:24:15;3.92;;;0.75;;
83096;SDS011;72968;49.460;11.004;2023-10-31T14:26:47;2.92;;;0.70;;
83096;SDS011;72968;49.460;11.004;2023-10-31T14:29:18;2.30;;;0.80;;
83096;SDS011;72968;49.460;11.004;2023-10-31T14:31:51;4.55;;;1.02;;
83096;SDS011;72968;49.460;11.004;2023-10-31T14:34:24;1.80;;;0.55;;
83096;SDS011;72968;49.460;11.004;2023-10-31T14:36:56;1.00;;;0.43;;
83096;SDS011;72968;49.460;11.004;2023-10-31T14:39:28;2.75;;;0.80;;
83096;SDS011;72968;49.460;11.004;2023-10-31T14:41:59;2.83;;;0.63;;
83096;SDS011;72968;49.460;11.004;2023-10-31T14:44:31;1.17;;;0.60;;
83096;SDS011;72968;49.460;11.004;2023-10-31T14:47:02;1.67;;;0.60;;
83096;SDS011;72968;49.460;11.004;2023-10-31T14:49:33;3.88;;;0.60;;
83096;SDS011;72968;49.460;11.004;2023-10-31T14:52:06;2.90;;;0.70;;
83096;SDS011;72968;49.460;11.004;2023-10-31T14:54:39;1.80;;;0.90;;
83096;SDS011;72968;49.460;11.004;2023-10-31T14:57:12;1.80;;;0.73;;
83096;SDS011;72968;49.460;11.004;2023-10-31T14:59:43;3.13;;;0.85;;
83096;SDS011;72968;49.460;11.004;2023-10-31T15:02:15;4.60;;;0.80;;
83096;SDS011;72968;49.460;11.004;2023-10-31T15:04:46;4.88;;;0.90;;